sensor_id;sensor_type;location;lat;lon;timestamp;temperature;humidity
21811;DHT22;11067;48.788;9.208;2023-06-04T00:01:40;17.00;99.90
21811;DHT22;11067;48.788;9.208;2023-06-04T00:04:06;17.00;99.90
21811;DHT22;11067;48.788;9.208;2023-06-04T00:06:31;16.90;99.90
21811;DHT22;11067;48.788;9.208;2023-06-04T00:08:57;17.00;99.90
21811;DHT22;11067;48.788;9.208;2023-06-04T00:11:22;17.00;99.90
21811;DHT22;11067;48.788;9.208;2023-06-04T00:13:48;16.90;99.90
21811;DHT22;11067;48.788;9.208;2023-06-04T00:16:14;16.90;99.90
21811;DHT22;11067;48.788;9.208;2023-06-04T00:18:39;16.90;99.90
21811;DHT22;11067;48.788;9.208;2023-06-04T00:21:05;16.90;99.90
21811;DHT22;11067;48.788;9.208;2023-06-04T00:23:30;16.80;99.90
21811;DHT22;11067;48.788;9.208;2023-06-04T00:25:56;16.90;99.90
21811;DHT22;11067;48.788;9.208;2023-06-04T00:28:21;16.70;99.90
21811;DHT22;11067;48.788;9.208;2023-06-04T00:30:47;16.60;99.90
21811;DHT22;11067;48.788;9.208;2023-06-04T00:33:12;16.60;99.90
21811;DHT22;11067;48.788;9.208;2023-06-04T00:35:38;16.50;99.90
21811;DHT22;11067;48.788;9.208;2023-06-04T00:38:03;16.50;99.90
21811;DHT22;11067;48.788;9.208;2023-06-04T00:40:29;16.50;99.90
21811;DHT22;11067;48.788;9.208;2023-06-04T00:42:54;16.40;99.90
21811;DHT22;11067;48.788;9.208;2023-06-04T00:45:21;16.20;99.90
21811;DHT22;11067;48.788;9.208;2023-06-04T00:47:46;16.20;99.90
21811;DHT22;11067;48.788;9.208;2023-06-04T00:50:13;16.10;99.90
21811;DHT22;11067;48.788;9.208;2023-06-04T00:52:39;16.20;99.90
21811;DHT22;11067;48.788;9.208;2023-06-04T00:55:05;16.10;99.90
21811;DHT22;11067;48.788;9.208;2023-06-04T00:57:30;16.20;99.90
21811;DHT22;11067;48.788;9.208;2023-06-04T00:59:56;16.20;99.90
21811;DHT22;11067;48.788;9.208;2023-06-04T01:02:23;16.20;99.90
21811;DHT22;11067;48.788;9.208;2023-06-04T01:04:53;16.10;99.90
21811;DHT22;11067;48.788;9.208;2023-06-04T01:07:21;16.00;99.90
21811;DHT22;11067;48.788;9.208;2023-06-04T01:09:49;16.00;99.90
21811;DHT22;11067;48.788;9.208;2023-06-04T01:12:14;15.90;99.90
21811;DHT22;11067;48.788;9.208;2023-06-04T01:14:40;15.80;99.90
21811;DHT22;11067;48.788;9.208;2023-06-04T01:17:15;15.70;99.90
21811;DHT22;11067;48.788;9.208;2023-06-04T01:20:02;15.60;99.90
21811;DHT22;11067;48.788;9.208;2023-06-04T01:25:15;15.60;99.90
21811;DHT22;11067;48.788;9.208;2023-06-04T01:27:50;15.80;99.90
21811;DHT22;11067;48.788;9.208;2023-06-04T01:30:24;15.80;99.90
21811;DHT22;11067;48.788;9.208;2023-06-04T01:32:54;15.70;99.90
21811;DHT22;11067;48.788;9.208;2023-06-04T01:35:21;15.80;99.90
21811;DHT22;11067;48.788;9.208;2023-06-04T01:37:46;15.70;99.90
21811;DHT22;11067;48.788;9.208;2023-06-04T01:40:13;15.60;99.90
21811;DHT22;11067;48.788;9.208;2023-06-04T01:42:38;15.70;99.90
21811;DHT22;11067;48.788;9.208;2023-06-04T01:45:04;15.60;99.90
21811;DHT22;11067;48.788;9.208;2023-06-04T01:47:30;15.50;99.90
21811;DHT22;11067;48.788;9.208;2023-06-04T01:49:56;15.40;99.90
21811;DHT22;11067;48.788;9.208;2023-06-04T01:52:21;15.50;99.90
21811;DHT22;11067;48.788;9.208;2023-06-04T01:54:47;15.50;99.90
21811;DHT22;11067;48.788;9.208;2023-06-04T01:57:18;15.50;99.90
21811;DHT22;11067;48.788;9.208;2023-06-04T01:59:45;15.50;99.90
21811;DHT22;11067;48.788;9.208;2023-06-04T02:02:12;15.50;99.90
21811;DHT22;11067;48.788;9.208;2023-06-04T02:04:37;15.40;99.90
21811;DHT22;11067;48.788;9.208;2023-06-04T02:07:08;15.40;99.90
21811;DHT22;11067;48.788;9.208;2023-06-04T02:09:34;15.40;99.90
21811;DHT22;11067;48.788;9.208;2023-06-04T02:12:00;15.30;99.90
21811;DHT22;11067;48.788;9.208;2023-06-04T02:14:26;15.30;99.90
21811;DHT22;11067;48.788;9.208;2023-06-04T02:16:51;15.20;99.90
21811;DHT22;11067;48.788;9.208;2023-06-04T02:19:23;15.20;99.90
21811;DHT22;11067;48.788;9.208;2023-06-04T02:21:48;15.20;99.90
21811;DHT22;11067;48.788;9.208;2023-06-04T02:24:14;15.20;99.90
21811;DHT22;11067;48.788;9.208;2023-06-04T02:26:40;15.20;99.90
21811;DHT22;11067;48.788;9.208;2023-06-04T02:29:05;15.10;99.90
21811;DHT22;11067;48.788;9.208;2023-06-04T02:31:31;15.10;99.90
21811;DHT22;11067;48.788;9.208;2023-06-04T02:33:56;15.00;99.90
21811;DHT22;11067;48.788;9.208;2023-06-04T02:36:22;15.00;99.90
21811;DHT22;11067;48.788;9.208;2023-06-04T02:38:47;15.00;99.90
21811;DHT22;11067;48.788;9.208;2023-06-04T02:41:13;15.00;99.90
21811;DHT22;11067;48.788;9.208;2023-06-04T02:43:38;14.90;99.90
21811;DHT22;11067;48.788;9.208;2023-06-04T02:46:04;14.90;99.90
21811;DHT22;11067;48.788;9.208;2023-06-04T02:48:31;14.90;99.90
21811;DHT22;11067;48.788;9.208;2023-06-04T02:50:57;14.90;99.90
21811;DHT22;11067;48.788;9.208;2023-06-04T02:53:22;14.80;99.90
21811;DHT22;11067;48.788;9.208;2023-06-04T02:55:49;14.70;99.90
21811;DHT22;11067;48.788;9.208;2023-06-04T02:58:16;14.70;99.90
21811;DHT22;11067;48.788;9.208;2023-06-04T03:00:41;14.60;99.90
21811;DHT22;11067;48.788;9.208;2023-06-04T03:03:07;14.60;99.90
21811;DHT22;11067;48.788;9.208;2023-06-04T03:05:33;14.50;99.90
21811;DHT22;11067;48.788;9.208;2023-06-04T03:08:00;14.40;99.90
21811;DHT22;11067;48.788;9.208;2023-06-04T03:10:25;14.40;99.90
21811;DHT22;11067;48.788;9.208;2023-06-04T03:12:51;14.40;99.90
21811;DHT22;11067;48.788;9.208;2023-06-04T03:15:16;14.30;99.90
21811;DHT22;11067;48.788;9.208;2023-06-04T03:17:42;14.30;99.90
21811;DHT22;11067;48.788;9.208;2023-06-04T03:20:08;14.30;99.90
21811;DHT22;11067;48.788;9.208;2023-06-04T03:22:34;14.30;99.90
21811;DHT22;11067;48.788;9.208;2023-06-04T03:25:01;14.40;99.90
21811;DHT22;11067;48.788;9.208;2023-06-04T03:27:27;14.30;99.90
21811;DHT22;11067;48.788;9.208;2023-06-04T03:29:52;14.40;99.90
21811;DHT22;11067;48.788;9.208;2023-06-04T03:32:18;14.40;99.90
21811;DHT22;11067;48.788;9.208;2023-06-04T03:34:43;14.30;99.90
21811;DHT22;11067;48.788;9.208;2023-06-04T03:37:09;14.30;99.90
21811;DHT22;11067;48.788;9.208;2023-06-04T03:39:35;14.30;99.90
21811;DHT22;11067;48.788;9.208;2023-06-04T03:42:00;14.30;99.90
21811;DHT22;11067;48.788;9.208;2023-06-04T03:44:26;14.30;99.90
21811;DHT22;11067;48.788;9.208;2023-06-04T03:46:52;14.30;99.90
21811;DHT22;11067;48.788;9.208;2023-06-04T03:49:17;14.30;99.90
21811;DHT22;11067;48.788;9.208;2023-06-04T03:51:43;14.40;99.90
21811;DHT22;11067;48.788;9.208;2023-06-04T03:54:09;14.30;99.90
21811;DHT22;11067;48.788;9.208;2023-06-04T03:56:35;14.30;99.90
21811;DHT22;11067;48.788;9.208;2023-06-04T03:59:00;14.20;99.90
21811;DHT22;11067;48.788;9.208;2023-06-04T04:01:26;14.30;99.90
21811;DHT22;11067;48.788;9.208;2023-06-04T04:03:52;14.20;99.90
21811;DHT22;11067;48.788;9.208;2023-06-04T04:06:18;14.30;99.90
21811;DHT22;11067;48.788;9.208;2023-06-04T04:08:44;14.30;99.90
21811;DHT22;11067;48.788;9.208;2023-06-04T04:11:11;14.30;99.90
21811;DHT22;11067;48.788;9.208;2023-06-04T04:13:36;14.30;99.90
21811;DHT22;11067;48.788;9.208;2023-06-04T04:16:02;14.30;99.90
21811;DHT22;11067;48.788;9.208;2023-06-04T04:18:27;14.30;99.90
21811;DHT22;11067;48.788;9.208;2023-06-04T04:20:53;14.40;99.90
21811;DHT22;11067;48.788;9.208;2023-06-04T04:23:18;14.50;99.90
21811;DHT22;11067;48.788;9.208;2023-06-04T04:25:44;14.70;99.90
21811;DHT22;11067;48.788;9.208;2023-06-04T04:28:09;14.70;99.90
21811;DHT22;11067;48.788;9.208;2023-06-04T04:30:35;14.80;99.90
21811;DHT22;11067;48.788;9.208;2023-06-04T04:33:04;14.70;99.90
21811;DHT22;11067;48.788;9.208;2023-06-04T04:35:32;14.60;99.90
21811;DHT22;11067;48.788;9.208;2023-06-04T04:38:01;14.80;99.90
21811;DHT22;11067;48.788;9.208;2023-06-04T04:40:30;15.00;99.90
21811;DHT22;11067;48.788;9.208;2023-06-04T04:42:56;14.80;99.90
21811;DHT22;11067;48.788;9.208;2023-06-04T04:45:22;15.40;99.90
21811;DHT22;11067;48.788;9.208;2023-06-04T04:47:47;15.80;99.90
21811;DHT22;11067;48.788;9.208;2023-06-04T04:50:13;16.30;99.90
21811;DHT22;11067;48.788;9.208;2023-06-04T04:52:39;16.80;99.90
21811;DHT22;11067;48.788;9.208;2023-06-04T04:55:05;17.60;99.90
21811;DHT22;11067;48.788;9.208;2023-06-04T04:57:30;17.30;99.90
21811;DHT22;11067;48.788;9.208;2023-06-04T04:59:56;17.30;99.90
21811;DHT22;11067;48.788;9.208;2023-06-04T05:02:21;17.10;99.90
21811;DHT22;11067;48.788;9.208;2023-06-04T05:04:47;17.10;99.90
21811;DHT22;11067;48.788;9.208;2023-06-04T05:07:12;18.00;99.90
21811;DHT22;11067;48.788;9.208;2023-06-04T05:09:38;17.20;99.90
21811;DHT22;11067;48.788;9.208;2023-06-04T05:12:04;17.40;99.90
21811;DHT22;11067;48.788;9.208;2023-06-04T05:14:29;18.70;99.90
21811;DHT22;11067;48.788;9.208;2023-06-04T05:16:55;17.60;99.90
21811;DHT22;11067;48.788;9.208;2023-06-04T05:19:23;17.90;99.90
21811;DHT22;11067;48.788;9.208;2023-06-04T05:21:50;18.20;99.90
21811;DHT22;11067;48.788;9.208;2023-06-04T05:24:16;18.00;99.90
21811;DHT22;11067;48.788;9.208;2023-06-04T05:26:41;18.30;99.90
21811;DHT22;11067;48.788;9.208;2023-06-04T05:29:08;18.80;99.90
21811;DHT22;11067;48.788;9.208;2023-06-04T05:31:34;18.50;99.90
21811;DHT22;11067;48.788;9.208;2023-06-04T05:34:00;18.50;99.90
21811;DHT22;11067;48.788;9.208;2023-06-04T05:36:30;19.10;99.90
21811;DHT22;11067;48.788;9.208;2023-06-04T05:38:56;18.50;99.90
21811;DHT22;11067;48.788;9.208;2023-06-04T05:41:25;19.00;99.90
21811;DHT22;11067;48.788;9.208;2023-06-04T05:43:51;18.10;99.90
21811;DHT22;11067;48.788;9.208;2023-06-04T05:46:17;17.90;99.90
21811;DHT22;11067;48.788;9.208;2023-06-04T05:48:43;18.20;99.90
21811;DHT22;11067;48.788;9.208;2023-06-04T05:51:08;18.60;99.90
21811;DHT22;11067;48.788;9.208;2023-06-04T05:53:34;18.50;99.90
21811;DHT22;11067;48.788;9.208;2023-06-04T05:55:59;19.40;99.90
21811;DHT22;11067;48.788;9.208;2023-06-04T05:58:25;19.50;99.70
21811;DHT22;11067;48.788;9.208;2023-06-04T06:00:51;19.20;98.40
21811;DHT22;11067;48.788;9.208;2023-06-04T06:03:16;20.70;95.40
21811;DHT22;11067;48.788;9.208;2023-06-04T06:05:42;20.50;94.90
21811;DHT22;11067;48.788;9.208;2023-06-04T06:08:08;21.00;94.30
21811;DHT22;11067;48.788;9.208;2023-06-04T06:10:34;20.40;94.10
21811;DHT22;11067;48.788;9.208;2023-06-04T06:12:59;19.90;92.90
21811;DHT22;11067;48.788;9.208;2023-06-04T06:15:28;21.00;93.00
21811;DHT22;11067;48.788;9.208;2023-06-04T06:17:54;20.70;93.60
21811;DHT22;11067;48.788;9.208;2023-06-04T06:20:20;21.30;90.80
21811;DHT22;11067;48.788;9.208;2023-06-04T06:22:47;21.10;90.80
21811;DHT22;11067;48.788;9.208;2023-06-04T06:25:13;20.90;88.40
21811;DHT22;11067;48.788;9.208;2023-06-04T06:27:41;20.60;90.00
21811;DHT22;11067;48.788;9.208;2023-06-04T06:30:07;19.70;94.10
21811;DHT22;11067;48.788;9.208;2023-06-04T06:32:33;19.10;95.10
21811;DHT22;11067;48.788;9.208;2023-06-04T06:34:59;19.20;95.80
21811;DHT22;11067;48.788;9.208;2023-06-04T06:37:25;19.80;94.80
21811;DHT22;11067;48.788;9.208;2023-06-04T06:42:18;20.00;94.30
21811;DHT22;11067;48.788;9.208;2023-06-04T06:44:45;20.40;93.60
21811;DHT22;11067;48.788;9.208;2023-06-04T06:47:10;19.60;95.50
21811;DHT22;11067;48.788;9.208;2023-06-04T06:49:39;19.20;97.30
21811;DHT22;11067;48.788;9.208;2023-06-04T06:52:05;18.80;97.60
21811;DHT22;11067;48.788;9.208;2023-06-04T06:54:31;19.00;97.90
21811;DHT22;11067;48.788;9.208;2023-06-04T06:56:56;19.30;98.30
21811;DHT22;11067;48.788;9.208;2023-06-04T06:59:23;19.60;96.90
21811;DHT22;11067;48.788;9.208;2023-06-04T07:01:49;19.50;97.70
21811;DHT22;11067;48.788;9.208;2023-06-04T07:04:15;19.30;98.30
21811;DHT22;11067;48.788;9.208;2023-06-04T07:06:41;19.40;98.40
21811;DHT22;11067;48.788;9.208;2023-06-04T07:09:07;19.50;98.00
21811;DHT22;11067;48.788;9.208;2023-06-04T07:11:32;20.10;96.50
21811;DHT22;11067;48.788;9.208;2023-06-04T07:13:58;19.60;97.10
21811;DHT22;11067;48.788;9.208;2023-06-04T07:16:23;19.90;97.60
21811;DHT22;11067;48.788;9.208;2023-06-04T07:18:49;20.90;95.50
21811;DHT22;11067;48.788;9.208;2023-06-04T07:21:15;21.30;93.70
21811;DHT22;11067;48.788;9.208;2023-06-04T07:23:41;20.50;95.30
21811;DHT22;11067;48.788;9.208;2023-06-04T07:26:07;20.40;97.90
21811;DHT22;11067;48.788;9.208;2023-06-04T07:28:33;20.50;96.70
21811;DHT22;11067;48.788;9.208;2023-06-04T07:30:58;20.30;96.90
21811;DHT22;11067;48.788;9.208;2023-06-04T07:33:24;19.90;97.40
21811;DHT22;11067;48.788;9.208;2023-06-04T07:35:50;19.80;97.20
21811;DHT22;11067;48.788;9.208;2023-06-04T07:38:16;20.20;97.30
21811;DHT22;11067;48.788;9.208;2023-06-04T07:40:43;20.20;96.50
21811;DHT22;11067;48.788;9.208;2023-06-04T07:43:08;20.10;97.00
21811;DHT22;11067;48.788;9.208;2023-06-04T07:45:34;20.20;96.50
21811;DHT22;11067;48.788;9.208;2023-06-04T07:47:59;20.10;98.20
21811;DHT22;11067;48.788;9.208;2023-06-04T07:50:25;20.50;97.80
21811;DHT22;11067;48.788;9.208;2023-06-04T07:52:51;20.50;98.10
21811;DHT22;11067;48.788;9.208;2023-06-04T07:55:16;20.20;96.70
21811;DHT22;11067;48.788;9.208;2023-06-04T07:57:42;20.60;97.20
21811;DHT22;11067;48.788;9.208;2023-06-04T08:00:08;20.80;96.60
21811;DHT22;11067;48.788;9.208;2023-06-04T08:02:34;20.70;96.60
21811;DHT22;11067;48.788;9.208;2023-06-04T08:05:00;20.80;97.90
21811;DHT22;11067;48.788;9.208;2023-06-04T08:07:27;20.90;97.60
21811;DHT22;11067;48.788;9.208;2023-06-04T08:09:53;21.00;97.30
21811;DHT22;11067;48.788;9.208;2023-06-04T08:12:18;21.30;96.70
21811;DHT22;11067;48.788;9.208;2023-06-04T08:14:44;20.80;97.10
21811;DHT22;11067;48.788;9.208;2023-06-04T08:17:10;20.80;97.00
21811;DHT22;11067;48.788;9.208;2023-06-04T08:19:36;21.10;98.10
21811;DHT22;11067;48.788;9.208;2023-06-04T08:22:01;21.30;97.70
21811;DHT22;11067;48.788;9.208;2023-06-04T08:24:27;21.50;96.20
21811;DHT22;11067;48.788;9.208;2023-06-04T08:26:52;21.50;96.80
21811;DHT22;11067;48.788;9.208;2023-06-04T08:29:18;21.50;95.10
21811;DHT22;11067;48.788;9.208;2023-06-04T08:31:44;21.90;96.40
21811;DHT22;11067;48.788;9.208;2023-06-04T08:34:10;22.10;94.80
21811;DHT22;11067;48.788;9.208;2023-06-04T08:36:35;22.00;94.70
21811;DHT22;11067;48.788;9.208;2023-06-04T08:39:01;21.60;94.90
21811;DHT22;11067;48.788;9.208;2023-06-04T08:41:56;21.80;95.00
21811;DHT22;11067;48.788;9.208;2023-06-04T08:44:22;22.10;96.00
21811;DHT22;11067;48.788;9.208;2023-06-04T08:46:51;22.30;96.90
21811;DHT22;11067;48.788;9.208;2023-06-04T08:49:21;22.20;96.40
21811;DHT22;11067;48.788;9.208;2023-06-04T08:51:47;22.20;96.70
21811;DHT22;11067;48.788;9.208;2023-06-04T08:54:13;21.70;97.00
21811;DHT22;11067;48.788;9.208;2023-06-04T08:56:39;21.80;97.30
21811;DHT22;11067;48.788;9.208;2023-06-04T08:59:06;22.30;97.30
21811;DHT22;11067;48.788;9.208;2023-06-04T09:01:34;22.50;95.60
21811;DHT22;11067;48.788;9.208;2023-06-04T09:04:01;22.50;95.30
21811;DHT22;11067;48.788;9.208;2023-06-04T09:06:29;22.10;95.50
21811;DHT22;11067;48.788;9.208;2023-06-04T09:09:00;22.00;95.70
21811;DHT22;11067;48.788;9.208;2023-06-04T09:11:27;22.40;95.20
21811;DHT22;11067;48.788;9.208;2023-06-04T09:13:59;22.60;93.90
21811;DHT22;11067;48.788;9.208;2023-06-04T09:16:26;22.60;95.10
21811;DHT22;11067;48.788;9.208;2023-06-04T09:18:52;22.90;93.30
21811;DHT22;11067;48.788;9.208;2023-06-04T09:21:18;22.70;94.10
21811;DHT22;11067;48.788;9.208;2023-06-04T09:23:46;23.00;93.00
21811;DHT22;11067;48.788;9.208;2023-06-04T09:26:13;23.00;91.90
21811;DHT22;11067;48.788;9.208;2023-06-04T09:28:43;22.80;91.10
21811;DHT22;11067;48.788;9.208;2023-06-04T09:31:17;23.00;91.90
21811;DHT22;11067;48.788;9.208;2023-06-04T09:33:48;23.30;91.60
21811;DHT22;11067;48.788;9.208;2023-06-04T09:36:14;23.60;90.20
21811;DHT22;11067;48.788;9.208;2023-06-04T09:38:40;23.70;90.00
21811;DHT22;11067;48.788;9.208;2023-06-04T09:41:17;23.80;90.50
21811;DHT22;11067;48.788;9.208;2023-06-04T09:43:45;23.70;86.80
21811;DHT22;11067;48.788;9.208;2023-06-04T09:46:15;23.60;84.00
21811;DHT22;11067;48.788;9.208;2023-06-04T09:48:42;23.20;86.60
21811;DHT22;11067;48.788;9.208;2023-06-04T09:51:15;23.60;83.60
21811;DHT22;11067;48.788;9.208;2023-06-04T09:53:53;23.60;81.70
21811;DHT22;11067;48.788;9.208;2023-06-04T09:56:19;23.60;79.30
21811;DHT22;11067;48.788;9.208;2023-06-04T09:58:45;23.60;82.60
21811;DHT22;11067;48.788;9.208;2023-06-04T10:01:11;24.00;84.20
21811;DHT22;11067;48.788;9.208;2023-06-04T10:03:38;24.30;74.50
21811;DHT22;11067;48.788;9.208;2023-06-04T10:06:06;24.20;76.70
21811;DHT22;11067;48.788;9.208;2023-06-04T10:08:32;24.10;77.20
21811;DHT22;11067;48.788;9.208;2023-06-04T10:11:01;24.30;78.10
21811;DHT22;11067;48.788;9.208;2023-06-04T10:13:35;24.20;74.90
21811;DHT22;11067;48.788;9.208;2023-06-04T10:16:04;23.90;73.90
21811;DHT22;11067;48.788;9.208;2023-06-04T10:18:31;24.10;73.60
21811;DHT22;11067;48.788;9.208;2023-06-04T10:20:56;24.30;67.70
21811;DHT22;11067;48.788;9.208;2023-06-04T10:23:23;24.50;68.50
21811;DHT22;11067;48.788;9.208;2023-06-04T10:25:50;24.90;70.70
21811;DHT22;11067;48.788;9.208;2023-06-04T10:28:18;24.80;69.70
21811;DHT22;11067;48.788;9.208;2023-06-04T10:30:45;24.40;71.90
21811;DHT22;11067;48.788;9.208;2023-06-04T10:33:11;24.30;71.30
21811;DHT22;11067;48.788;9.208;2023-06-04T10:35:37;24.00;73.00
21811;DHT22;11067;48.788;9.208;2023-06-04T10:38:10;23.80;75.10
21811;DHT22;11067;48.788;9.208;2023-06-04T10:40:37;24.00;73.20
21811;DHT22;11067;48.788;9.208;2023-06-04T10:43:07;24.30;74.60
21811;DHT22;11067;48.788;9.208;2023-06-04T10:45:33;24.40;73.70
21811;DHT22;11067;48.788;9.208;2023-06-04T10:48:06;24.80;75.10
21811;DHT22;11067;48.788;9.208;2023-06-04T10:50:32;25.20;69.00
21811;DHT22;11067;48.788;9.208;2023-06-04T10:52:59;25.10;70.40
21811;DHT22;11067;48.788;9.208;2023-06-04T10:55:29;25.20;71.40
21811;DHT22;11067;48.788;9.208;2023-06-04T10:57:55;25.00;71.00
21811;DHT22;11067;48.788;9.208;2023-06-04T11:00:21;25.30;70.10
21811;DHT22;11067;48.788;9.208;2023-06-04T11:02:56;25.10;68.50
21811;DHT22;11067;48.788;9.208;2023-06-04T11:05:22;25.20;67.80
21811;DHT22;11067;48.788;9.208;2023-06-04T11:07:58;24.90;69.90
21811;DHT22;11067;48.788;9.208;2023-06-04T11:10:37;25.20;69.10
21811;DHT22;11067;48.788;9.208;2023-06-04T11:13:04;25.10;67.30
21811;DHT22;11067;48.788;9.208;2023-06-04T11:15:44;24.80;67.80
21811;DHT22;11067;48.788;9.208;2023-06-04T11:18:17;24.20;68.60
21811;DHT22;11067;48.788;9.208;2023-06-04T11:20:59;24.20;68.40
21811;DHT22;11067;48.788;9.208;2023-06-04T11:23:25;24.20;69.50
21811;DHT22;11067;48.788;9.208;2023-06-04T11:25:52;24.30;68.90
21811;DHT22;11067;48.788;9.208;2023-06-04T11:28:18;24.30;69.50
21811;DHT22;11067;48.788;9.208;2023-06-04T11:31:06;24.40;68.20
21811;DHT22;11067;48.788;9.208;2023-06-04T11:33:45;24.30;68.50
21811;DHT22;11067;48.788;9.208;2023-06-04T11:39:01;23.90;68.60
21811;DHT22;11067;48.788;9.208;2023-06-04T11:41:30;24.10;67.50
21811;DHT22;11067;48.788;9.208;2023-06-04T11:43:57;24.50;67.80
21811;DHT22;11067;48.788;9.208;2023-06-04T11:46:23;24.60;65.20
21811;DHT22;11067;48.788;9.208;2023-06-04T11:48:52;24.20;65.70
21811;DHT22;11067;48.788;9.208;2023-06-04T11:51:20;24.20;65.60
21811;DHT22;11067;48.788;9.208;2023-06-04T11:53:46;24.60;66.60
21811;DHT22;11067;48.788;9.208;2023-06-04T11:56:12;25.00;67.40
21811;DHT22;11067;48.788;9.208;2023-06-04T11:58:37;25.00;62.50
21811;DHT22;11067;48.788;9.208;2023-06-04T12:01:04;25.10;62.30
21811;DHT22;11067;48.788;9.208;2023-06-04T12:03:37;24.80;62.40
21811;DHT22;11067;48.788;9.208;2023-06-04T12:06:19;25.10;61.60
21811;DHT22;11067;48.788;9.208;2023-06-04T12:08:46;25.10;61.50
21811;DHT22;11067;48.788;9.208;2023-06-04T12:11:29;24.20;61.90
21811;DHT22;11067;48.788;9.208;2023-06-04T12:13:58;24.50;63.70
21811;DHT22;11067;48.788;9.208;2023-06-04T12:16:25;24.70;62.20
21811;DHT22;11067;48.788;9.208;2023-06-04T12:18:51;24.40;62.30
21811;DHT22;11067;48.788;9.208;2023-06-04T12:21:18;24.40;63.60
21811;DHT22;11067;48.788;9.208;2023-06-04T12:23:45;24.90;61.60
21811;DHT22;11067;48.788;9.208;2023-06-04T12:26:20;25.10;60.60
21811;DHT22;11067;48.788;9.208;2023-06-04T12:29:01;24.90;61.10
21811;DHT22;11067;48.788;9.208;2023-06-04T12:31:26;25.20;59.50
21811;DHT22;11067;48.788;9.208;2023-06-04T12:34:00;25.00;60.70
21811;DHT22;11067;48.788;9.208;2023-06-04T12:36:26;25.40;60.00
21811;DHT22;11067;48.788;9.208;2023-06-04T12:38:51;24.90;59.40
21811;DHT22;11067;48.788;9.208;2023-06-04T12:41:17;24.80;59.40
21811;DHT22;11067;48.788;9.208;2023-06-04T12:43:43;24.30;59.50
21811;DHT22;11067;48.788;9.208;2023-06-04T12:46:09;24.60;60.30
21811;DHT22;11067;48.788;9.208;2023-06-04T12:48:35;25.10;59.20
21811;DHT22;11067;48.788;9.208;2023-06-04T12:51:00;24.90;57.00
21811;DHT22;11067;48.788;9.208;2023-06-04T12:53:26;25.20;57.90
21811;DHT22;11067;48.788;9.208;2023-06-04T12:55:51;25.20;57.00
21811;DHT22;11067;48.788;9.208;2023-06-04T12:58:17;25.10;56.90
21811;DHT22;11067;48.788;9.208;2023-06-04T13:00:42;25.20;56.60
21811;DHT22;11067;48.788;9.208;2023-06-04T13:03:08;25.20;56.80
21811;DHT22;11067;48.788;9.208;2023-06-04T13:05:36;25.40;54.70
21811;DHT22;11067;48.788;9.208;2023-06-04T13:08:01;25.20;54.40
21811;DHT22;11067;48.788;9.208;2023-06-04T13:10:27;25.00;53.10
21811;DHT22;11067;48.788;9.208;2023-06-04T13:12:53;24.90;54.80
21811;DHT22;11067;48.788;9.208;2023-06-04T13:15:18;24.90;54.90
21811;DHT22;11067;48.788;9.208;2023-06-04T13:17:44;24.90;53.40
21811;DHT22;11067;48.788;9.208;2023-06-04T13:20:10;24.90;51.10
21811;DHT22;11067;48.788;9.208;2023-06-04T13:22:35;25.20;51.90
21811;DHT22;11067;48.788;9.208;2023-06-04T13:25:01;25.20;51.80
21811;DHT22;11067;48.788;9.208;2023-06-04T13:27:26;25.30;52.40
21811;DHT22;11067;48.788;9.208;2023-06-04T13:29:52;25.50;51.90
21811;DHT22;11067;48.788;9.208;2023-06-04T13:32:18;25.60;50.30
21811;DHT22;11067;48.788;9.208;2023-06-04T13:34:43;25.40;48.80
21811;DHT22;11067;48.788;9.208;2023-06-04T13:37:08;25.20;49.90
21811;DHT22;11067;48.788;9.208;2023-06-04T13:39:38;25.20;50.00
21811;DHT22;11067;48.788;9.208;2023-06-04T13:44:30;25.50;51.20
21811;DHT22;11067;48.788;9.208;2023-06-04T13:46:58;25.60;49.40
21811;DHT22;11067;48.788;9.208;2023-06-04T13:49:24;25.30;49.40
21811;DHT22;11067;48.788;9.208;2023-06-04T13:51:50;25.50;47.80
21811;DHT22;11067;48.788;9.208;2023-06-04T13:54:15;24.90;46.90
21811;DHT22;11067;48.788;9.208;2023-06-04T13:56:41;25.00;47.40
21811;DHT22;11067;48.788;9.208;2023-06-04T13:59:07;25.10;45.50
21811;DHT22;11067;48.788;9.208;2023-06-04T14:01:32;25.40;45.30
21811;DHT22;11067;48.788;9.208;2023-06-04T14:03:58;25.70;45.40
21811;DHT22;11067;48.788;9.208;2023-06-04T14:06:26;25.00;45.40
21811;DHT22;11067;48.788;9.208;2023-06-04T14:08:52;25.00;45.40
21811;DHT22;11067;48.788;9.208;2023-06-04T14:11:17;25.30;43.90
21811;DHT22;11067;48.788;9.208;2023-06-04T14:13:43;25.60;44.80
21811;DHT22;11067;48.788;9.208;2023-06-04T14:16:10;25.70;46.30
21811;DHT22;11067;48.788;9.208;2023-06-04T14:18:36;25.70;46.80
21811;DHT22;11067;48.788;9.208;2023-06-04T14:21:01;25.80;46.20
21811;DHT22;11067;48.788;9.208;2023-06-04T14:23:27;25.80;46.40
21811;DHT22;11067;48.788;9.208;2023-06-04T14:25:52;25.90;45.80
21811;DHT22;11067;48.788;9.208;2023-06-04T14:28:18;26.00;45.60
21811;DHT22;11067;48.788;9.208;2023-06-04T14:30:46;25.80;44.10
21811;DHT22;11067;48.788;9.208;2023-06-04T14:33:11;25.60;44.70
21811;DHT22;11067;48.788;9.208;2023-06-04T14:35:37;25.30;44.00
21811;DHT22;11067;48.788;9.208;2023-06-04T14:38:04;25.20;44.30
21811;DHT22;11067;48.788;9.208;2023-06-04T14:40:29;25.10;44.40
21811;DHT22;11067;48.788;9.208;2023-06-04T14:42:55;25.20;41.90
21811;DHT22;11067;48.788;9.208;2023-06-04T14:45:20;25.50;41.80
21811;DHT22;11067;48.788;9.208;2023-06-04T14:47:46;25.50;42.00
21811;DHT22;11067;48.788;9.208;2023-06-04T14:50:12;25.50;42.50
21811;DHT22;11067;48.788;9.208;2023-06-04T14:52:38;25.30;42.50
21811;DHT22;11067;48.788;9.208;2023-06-04T14:55:03;25.20;42.00
21811;DHT22;11067;48.788;9.208;2023-06-04T14:57:29;25.30;41.40
21811;DHT22;11067;48.788;9.208;2023-06-04T14:59:55;25.40;41.20
21811;DHT22;11067;48.788;9.208;2023-06-04T15:02:20;25.70;41.10
21811;DHT22;11067;48.788;9.208;2023-06-04T15:04:46;25.80;42.70
21811;DHT22;11067;48.788;9.208;2023-06-04T15:07:12;25.80;42.40
21811;DHT22;11067;48.788;9.208;2023-06-04T15:09:38;25.80;43.00
21811;DHT22;11067;48.788;9.208;2023-06-04T15:12:04;25.90;42.70
21811;DHT22;11067;48.788;9.208;2023-06-04T15:14:30;25.70;41.80
21811;DHT22;11067;48.788;9.208;2023-06-04T15:16:55;25.60;42.00
21811;DHT22;11067;48.788;9.208;2023-06-04T15:19:21;25.50;41.90
21811;DHT22;11067;48.788;9.208;2023-06-04T15:21:46;25.40;41.30
21811;DHT22;11067;48.788;9.208;2023-06-04T15:24:12;25.50;41.60
21811;DHT22;11067;48.788;9.208;2023-06-04T15:26:37;25.40;40.80
21811;DHT22;11067;48.788;9.208;2023-06-04T15:29:03;25.40;41.90
21811;DHT22;11067;48.788;9.208;2023-06-04T15:31:28;25.40;40.90
21811;DHT22;11067;48.788;9.208;2023-06-04T15:33:54;25.30;40.40
21811;DHT22;11067;48.788;9.208;2023-06-04T15:36:19;25.50;42.10
21811;DHT22;11067;48.788;9.208;2023-06-04T15:38:47;25.70;41.10